Time;durP1;ratioP1;P1;durP2;ratioP2;P2;SDS_P1;SDS_P2;PMS_P1;PMS_P2;Temp;Humidity;BMP_temperature;BMP_pressure;BME280_temperature;BME280_humidity;BME280_pressure;Samples;Min_cycle;Max_cycle;Signal;HPM_P1;HPM_P2
2021/09/07 00:02:02;;;;;;;11.68;7.68;;;;;;;8.94;85.91;91534.13;4976544;28;20027;-91
2021/09/07 00:04:30;;;;;;;12.38;7.47;;;;;;;9.00;85.96;91534.72;4944598;28;20033;-90
2021/09/07 00:06:57;;;;;;;13.10;7.70;;;;;;;9.05;86.80;91535.34;4944719;28;20085;-90
2021/09/07 00:09:22;;;;;;;15.82;7.75;;;;;;;9.12;86.68;91539.31;4944024;28;20032;-89
2021/09/07 00:11:47;;;;;;;12.18;7.57;;;;;;;9.05;85.73;91532.75;4959774;28;20027;-90
2021/09/07 00:14:13;;;;;;;10.35;6.97;;;;;;;8.90;85.59;91533.16;4944075;28;20171;-89
2021/09/07 00:16:38;;;;;;;11.40;7.25;;;;;;;8.93;85.52;91537.75;4976300;28;20026;-90
2021/09/07 00:19:04;;;;;;;10.93;7.07;;;;;;;9.03;84.87;91534.88;4943827;28;20022;-89
2021/09/07 00:21:29;;;;;;;12.63;7.82;;;;;;;8.91;84.35;91524.31;4943931;28;20029;-89
2021/09/07 00:23:55;;;;;;;14.18;7.72;;;;;;;9.06;84.24;91530.91;4944029;28;20030;-91
2021/09/07 00:26:20;;;;;;;12.88;7.47;;;;;;;9.04;84.64;91533.81;4959895;28;20078;-91
2021/09/07 00:28:45;;;;;;;13.10;8.00;;;;;;;8.93;85.21;91524.75;4959703;28;20038;-90
2021/09/07 00:31:11;;;;;;;14.15;7.40;;;;;;;8.97;85.35;91528.28;4959817;28;20030;-89
2021/09/07 00:33:36;;;;;;;13.55;7.70;;;;;;;8.86;85.93;91521.84;4975402;28;20528;-89
2021/09/07 00:36:02;;;;;;;15.50;7.93;;;;;;;8.77;85.74;91524.44;4959674;28;20019;-91
2021/09/07 00:38:27;;;;;;;14.82;8.25;;;;;;;8.70;85.96;91526.69;4975755;28;20049;-91
2021/09/07 00:40:53;;;;;;;12.38;7.57;;;;;;;8.73;85.88;91528.69;4943364;28;20026;-90
2021/09/07 00:43:19;;;;;;;11.98;7.55;;;;;;;8.71;85.38;91530.06;4943377;28;20026;-90
2021/09/07 00:45:45;;;;;;;14.93;8.30;;;;;;;8.78;85.89;91531.16;4959471;28;20477;-91
2021/09/07 00:48:10;;;;;;;14.68;7.57;;;;;;;8.76;85.13;91533.31;4943006;28;20023;-89
2021/09/07 00:50:36;;;;;;;14.90;7.72;;;;;;;8.59;85.00;91526.22;4943366;28;20019;-90
2021/09/07 00:53:01;;;;;;;11.68;7.20;;;;;;;8.67;84.86;91523.94;4943368;28;20023;-90
2021/09/07 00:55:27;;;;;;;13.45;7.30;;;;;;;8.55;85.76;91527.88;4975095;28;20035;-90
2021/09/07 00:57:52;;;;;;;15.80;8.88;;;;;;;8.64;86.50;91519.34;4939648;29;20082;-90
2021/09/07 01:00:18;;;;;;;14.63;8.80;;;;;;;8.53;86.75;91514.41;4924035;29;20376;-90
2021/09/07 01:02:43;;;;;;;15.35;8.65;;;;;;;8.54;87.06;91515.94;4939782;29;20049;-90
2021/09/07 01:05:09;;;;;;;15.57;8.65;;;;;;;8.50;86.77;91517.59;4932203;28;20406;-90
2021/09/07 01:07:35;;;;;;;13.63;7.95;;;;;;;8.45;86.55;91512.56;4958783;28;20023;-90
2021/09/07 01:10:04;;;;;;;17.08;9.20;;;;;;;8.47;86.45;91507.81;4942229;28;20443;-90
2021/09/07 01:12:29;;;;;;;16.17;8.43;;;;;;;8.52;85.69;91512.88;4958813;28;20031;-91
2021/09/07 01:14:55;;;;;;;12.90;8.43;;;;;;;8.52;85.47;91512.88;4974839;28;20121;-90
2021/09/07 01:17:20;;;;;;;13.82;8.15;;;;;;;8.58;84.69;91510.91;4974992;28;20419;-89
2021/09/07 01:19:47;;;;;;;16.40;7.82;;;;;;;8.49;85.41;91510.88;4974983;28;20025;-90
2021/09/07 01:22:19;;;;;;;15.45;8.25;;;;;;;8.58;85.30;91513.50;4974680;28;20133;-90
2021/09/07 01:24:44;;;;;;;12.13;7.20;;;;;;;8.48;85.23;91514.56;4958459;28;20049;-90
2021/09/07 01:27:10;;;;;;;15.38;8.02;;;;;;;8.59;85.18;91502.81;4989500;28;20470;-89
2021/09/07 01:29:37;;;;;;;12.48;7.57;;;;;;;8.37;85.35;91495.88;4945804;28;20056;-89
2021/09/07 01:32:03;;;;;;;14.32;7.45;;;;;;;8.41;84.88;91500.44;4962083;28;20073;-90
2021/09/07 01:34:29;;;;;;;12.00;6.95;;;;;;;8.32;85.03;91498.56;4961866;28;20390;-90
2021/09/07 01:36:54;;;;;;;13.88;8.45;;;;;;;8.20;85.81;91497.56;4961683;28;20037;-90
2021/09/07 01:39:20;;;;;;;16.27;8.68;;;;;;;8.14;86.82;91492.53;4961384;28;20027;-90
2021/09/07 01:41:45;;;;;;;13.15;8.13;;;;;;;8.06;87.46;91490.66;4961269;28;20490;-91
2021/09/07 01:44:11;;;;;;;17.08;9.05;;;;;;;8.11;87.35;91498.31;4961459;28;20429;-90
2021/09/07 01:46:36;;;;;;;13.23;7.43;;;;;;;8.12;86.61;91493.88;4945599;28;20018;-90
2021/09/07 01:49:01;;;;;;;17.38;8.25;;;;;;;8.07;86.39;91492.19;4961221;28;20026;-90
2021/09/07 01:51:27;;;;;;;12.27;8.32;;;;;;;8.21;86.97;91496.53;4977215;28;20030;-89
2021/09/07 01:53:52;;;;;;;14.32;8.43;;;;;;;8.22;87.43;91498.81;4950622;28;20027;-91
2021/09/07 01:56:18;;;;;;;17.42;7.90;;;;;;;8.32;87.53;91493.38;4976278;23;20047;-90
2021/09/07 01:58:43;;;;;;;14.88;9.02;;;;;;;8.28;87.61;91489.06;4962092;28;20026;-90
2021/09/07 02:01:09;;;;;;;12.98;8.30;;;;;;;8.27;87.89;91490.13;4962235;28;20029;-90
2021/09/07 02:03:34;;;;;;;16.23;9.30;;;;;;;8.24;87.44;91495.94;4962977;28;20490;-89
2021/09/07 02:05:59;;;;;;;16.80;9.18;;;;;;;8.34;86.61;91493.09;4962878;28;20026;-90
2021/09/07 02:08:25;;;;;;;15.45;8.75;;;;;;;8.34;86.15;91487.88;4962442;28;20544;-90
2021/09/07 02:10:50;;;;;;;14.18;8.45;;;;;;;8.29;86.90;91490.59;4994497;28;20034;-90
2021/09/07 02:13:16;;;;;;;12.90;8.45;;;;;;;8.29;86.76;91495.78;4961928;28;20022;-89
2021/09/07 02:15:41;;;;;;;16.23;9.00;;;;;;;8.13;87.21;91485.81;4962201;28;20037;-90
2021/09/07 02:18:07;;;;;;;16.27;8.98;;;;;;;8.19;87.11;91483.84;4962313;28;20033;-90
2021/09/07 02:20:32;;;;;;;16.40;8.90;;;;;;;8.11;87.18;91482.72;4996925;28;20049;-90
2021/09/07 02:22:57;;;;;;;18.15;8.40;;;;;;;8.06;87.24;91480.28;4962172;28;20477;-91
2021/09/07 02:25:23;;;;;;;13.95;8.10;;;;;;;8.13;86.29;91482.44;4962713;28;20090;-90
2021/09/07 02:27:48;;;;;;;16.15;9.35;;;;;;;8.03;86.75;91478.28;4980978;28;20033;-90
2021/09/07 02:30:14;;;;;;;16.17;8.85;;;;;;;8.05;87.25;91475.38;5000052;28;20029;-91
2021/09/07 02:32:39;;;;;;;14.63;9.13;;;;;;;8.10;87.53;91475.25;4995252;28;20045;-90
2021/09/07 02:35:05;;;;;;;15.85;9.32;;;;;;;8.02;88.13;91474.16;4987979;28;20087;-91
2021/09/07 02:37:30;;;;;;;16.05;9.30;;;;;;;7.92;86.94;91468.44;4992900;28;20026;-90
2021/09/07 02:39:56;;;;;;;16.02;9.00;;;;;;;7.96;87.56;91469.38;4981102;28;20444;-90
2021/09/07 02:42:21;;;;;;;15.15;8.77;;;;;;;7.90;86.97;91466.13;4997468;28;20029;-91
2021/09/07 02:44:47;;;;;;;16.63;9.27;;;;;;;7.82;87.23;91465.03;4997638;28;20037;-90
2021/09/07 02:47:12;;;;;;;17.60;9.25;;;;;;;7.88;87.20;91460.50;4980464;28;20494;-90
2021/09/07 02:49:38;;;;;;;15.07;9.40;;;;;;;7.84;87.23;91456.94;4980016;28;20030;-90
2021/09/07 02:52:03;;;;;;;16.02;8.68;;;;;;;7.80;86.89;91456.78;4996189;28;20096;-89
2021/09/07 02:54:29;;;;;;;18.02;9.05;;;;;;;7.98;86.69;91451.66;4996527;28;20068;-89
2021/09/07 02:56:54;;;;;;;14.27;9.00;;;;;;;7.80;86.91;91451.56;4980715;28;20022;-90
2021/09/07 02:59:21;;;;;;;14.32;9.25;;;;;;;7.74;87.99;91454.59;4980481;28;20017;-90
2021/09/07 03:01:46;;;;;;;16.65;9.70;;;;;;;7.80;87.92;91440.44;4996795;28;20072;-90
2021/09/07 03:04:11;;;;;;;15.77;9.40;;;;;;;7.83;87.36;91439.84;4997423;28;20478;-90
2021/09/07 03:06:37;;;;;;;15.38;8.90;;;;;;;7.79;87.12;91449.28;4996432;28;20441;-89
2021/09/07 03:09:02;;;;;;;16.23;9.90;;;;;;;7.85;86.97;91445.50;4996616;28;20071;-91
2021/09/07 03:11:28;;;;;;;13.68;9.13;;;;;;;8.02;87.89;91447.41;4980126;28;20022;-91
2021/09/07 03:13:53;;;;;;;16.48;9.75;;;;;;;7.96;88.61;91444.19;5013086;28;20026;-90
2021/09/07 03:16:19;;;;;;;16.67;10.02;;;;;;;7.98;88.79;91434.25;4976815;28;20030;-90
2021/09/07 03:18:44;;;;;;;14.80;9.27;;;;;;;8.05;88.96;91431.25;4993094;28;20030;-90
2021/09/07 03:21:09;;;;;;;19.27;9.80;;;;;;;8.03;88.66;91428.97;4945044;28;20390;-90
2021/09/07 03:23:35;;;;;;;18.80;10.23;;;;;;;8.00;88.50;91429.56;4994244;28;20030;-90
2021/09/07 03:26:00;;;;;;;17.30;10.40;;;;;;;7.92;89.07;91432.13;4982663;28;20575;-90
2021/09/07 03:28:26;;;;;;;16.45;9.25;;;;;;;7.94;88.61;91441.13;4963831;28;20442;-90
2021/09/07 03:30:51;;;;;;;16.45;9.82;;;;;;;8.12;88.78;91434.16;5014045;28;20031;-90
2021/09/07 03:33:17;;;;;;;16.90;9.85;;;;;;;7.93;88.23;91434.41;4995776;28;20022;-90
2021/09/07 03:35:43;;;;;;;16.98;9.48;;;;;;;7.85;88.80;91440.31;4996151;28;20553;-90
2021/09/07 03:38:08;;;;;;;18.13;10.18;;;;;;;7.78;88.52;91442.59;4979902;28;20030;-90
2021/09/07 03:40:34;;;;;;;16.27;9.27;;;;;;;7.77;87.42;91430.66;4963513;28;20053;-89
2021/09/07 03:42:59;;;;;;;14.80;8.98;;;;;;;7.87;86.31;91423.38;4996161;28;20511;-90
2021/09/07 03:45:25;;;;;;;16.80;9.18;;;;;;;7.73;86.25;91416.75;4963548;28;20506;-90
2021/09/07 03:47:50;;;;;;;17.73;9.13;;;;;;;7.63;86.85;91420.34;4980186;28;20853;-91
2021/09/07 03:50:16;;;;;;;16.25;8.63;;;;;;;7.53;87.35;91429.16;5012117;28;20053;-90
2021/09/07 03:52:41;;;;;;;15.00;8.80;;;;;;;7.46;88.47;91426.22;4976602;28;20026;-90
2021/09/07 03:55:08;;;;;;;14.38;8.88;;;;;;;7.43;89.29;91427.56;4976688;28;20397;-90
2021/09/07 03:57:34;;;;;;;14.57;8.00;;;;;;;7.44;88.84;91423.16;4957427;28;20022;-92
2021/09/07 03:59:59;;;;;;;15.50;8.23;;;;;;;7.49;88.58;91438.59;4985655;28;20019;-92
2021/09/07 04:02:25;;;;;;;16.70;8.07;;;;;;;7.70;87.09;91435.50;4971581;28;20359;-89
2021/09/07 04:04:51;;;;;;;19.02;9.18;;;;;;;7.60;87.43;91432.09;4976669;28;20463;-90
2021/09/07 04:07:16;;;;;;;12.90;8.73;;;;;;;7.51;87.79;91430.50;4960865;28;20026;-90
2021/09/07 04:09:42;;;;;;;15.45;9.05;;;;;;;7.43;88.72;91432.00;4976080;28;20026;-90
2021/09/07 04:12:07;;;;;;;18.42;10.23;;;;;;;7.48;89.30;91424.09;4960328;28;20037;-90
2021/09/07 04:14:32;;;;;;;18.25;9.13;;;;;;;7.61;88.29;91425.09;4960459;28;20030;-89
2021/09/07 04:16:58;;;;;;;19.15;11.18;;;;;;;7.71;89.18;91437.81;4960009;28;20022;-90
2021/09/07 04:19:23;;;;;;;17.33;10.10;;;;;;;7.68;88.65;91438.41;4961571;28;20096;-90
2021/09/07 04:21:49;;;;;;;17.10;9.77;;;;;;;7.58;88.07;91433.44;5012411;28;20037;-90
2021/09/07 04:24:14;;;;;;;17.30;10.27;;;;;;;7.55;87.55;91445.19;5011962;28;20033;-90
2021/09/07 04:26:40;;;;;;;16.63;8.75;;;;;;;7.61;87.33;91438.81;4976520;28;20064;-90
2021/09/07 04:29:05;;;;;;;19.08;9.40;;;;;;;7.74;86.44;91441.63;4960157;28;20386;-90
2021/09/07 04:31:31;;;;;;;15.35;8.98;;;;;;;7.74;86.25;91437.22;4960295;28;20029;-90
2021/09/07 04:33:57;;;;;;;15.18;8.50;;;;;;;7.53;86.65;91431.75;4960458;28;20029;-91
2021/09/07 04:36:23;;;;;;;15.68;9.27;;;;;;;7.38;88.50;91429.50;4978775;28;20030;-90
2021/09/07 04:38:48;;;;;;;16.05;9.38;;;;;;;7.38;88.34;91437.28;4960093;28;20030;-90
2021/09/07 04:41:13;;;;;;;15.30;8.77;;;;;;;7.47;87.94;91425.16;4960687;28;20041;-90
2021/09/07 04:43:39;;;;;;;20.23;9.27;;;;;;;7.61;87.10;91438.81;4960182;28;20022;-90
2021/09/07 04:46:04;;;;;;;16.88;9.18;;;;;;;7.37;87.52;91431.34;4979313;28;20110;-90
2021/09/07 04:48:30;;;;;;;21.77;9.95;;;;;;;7.33;89.99;91432.22;4963779;28;20045;-90
2021/09/07 04:50:55;;;;;;;18.90;9.98;;;;;;;7.34;89.40;91428.56;4979561;28;20429;-90
2021/09/07 04:53:21;;;;;;;18.85;10.40;;;;;;;7.35;89.19;91443.06;4981471;28;20026;-91
2021/09/07 04:55:47;;;;;;;29.55;10.35;;;;;;;7.38;88.85;91432.09;4979124;28;20084;-90
2021/09/07 04:58:13;;;;;;;18.40;9.50;;;;;;;7.42;88.27;91439.00;4964978;28;20452;-90
2021/09/07 05:00:38;;;;;;;17.50;9.88;;;;;;;7.54;88.60;91443.66;4966438;28;20068;-90
2021/09/07 05:03:03;;;;;;;16.02;10.23;;;;;;;7.56;89.76;91436.34;5015272;28;20034;-90
2021/09/07 05:05:29;;;;;;;21.17;10.85;;;;;;;7.55;89.52;91445.19;4997788;28;20032;-91
2021/09/07 05:07:54;;;;;;;16.35;10.48;;;;;;;7.58;89.80;91444.59;4992859;28;20029;-89
2021/09/07 05:10:20;;;;;;;16.85;10.02;;;;;;;7.67;90.10;91442.06;4981657;28;20501;-90
2021/09/07 05:12:45;;;;;;;20.58;10.50;;;;;;;7.74;90.40;91446.81;4978796;28;20022;-90
2021/09/07 05:15:11;;;;;;;16.50;9.98;;;;;;;7.71;89.74;91442.25;4963090;28;20482;-90
2021/09/07 05:17:36;;;;;;;16.98;9.85;;;;;;;7.71;89.36;91447.44;4978585;28;20076;-90
2021/09/07 05:20:02;;;;;;;18.50;9.07;;;;;;;7.75;89.24;91453.53;4963139;28;20390;-91
2021/09/07 05:22:27;;;;;;;14.10;9.50;;;;;;;7.64;88.84;91453.78;4946986;28;20539;-90
2021/09/07 05:24:53;;;;;;;22.80;10.02;;;;;;;7.62;88.86;91450.72;4962537;28;20038;-90
2021/09/07 05:27:18;;;;;;;17.90;10.80;;;;;;;7.76;88.09;91450.66;4973709;28;20391;-90
2021/09/07 05:29:44;;;;;;;17.73;9.88;;;;;;;7.70;87.64;91445.88;4990124;28;20042;-90
2021/09/07 05:32:10;;;;;;;18.30;10.30;;;;;;;7.61;88.50;91456.97;4996962;28;20034;-90
2021/09/07 05:34:36;;;;;;;20.23;10.07;;;;;;;7.70;88.97;91451.81;4981571;28;20477;-90
2021/09/07 05:37:02;;;;;;;16.75;10.52;;;;;;;7.76;89.19;91455.84;4996582;28;20068;-90
2021/09/07 05:39:27;;;;;;;20.15;10.32;;;;;;;7.86;89.52;91453.00;4980100;28;20021;-90
2021/09/07 05:41:53;;;;;;;19.50;10.30;;;;;;;8.02;88.39;91462.97;4964097;28;20076;-91
2021/09/07 05:44:19;;;;;;;16.92;9.35;;;;;;;8.07;87.46;91461.03;5001315;28;20049;-90
2021/09/07 05:46:44;;;;;;;15.45;9.30;;;;;;;7.97;87.56;91469.06;4964334;28;20030;-89
2021/09/07 05:49:09;;;;;;;13.88;8.93;;;;;;;7.97;88.16;91470.91;4975173;28;20226;-91
2021/09/07 05:51:35;;;;;;;16.88;9.30;;;;;;;7.96;88.81;91471.97;4983612;28;20041;-89
2021/09/07 05:54:01;;;;;;;16.52;9.32;;;;;;;8.08;88.21;91469.59;4978206;28;20026;-90
2021/09/07 05:56:28;;;;;;;14.88;8.35;;;;;;;8.28;88.02;91476.84;4961214;28;20034;-90
2021/09/07 05:58:54;;;;;;;16.58;10.00;;;;;;;8.44;88.16;91474.63;4946288;28;20117;-90
2021/09/07 06:01:19;;;;;;;16.42;10.38;;;;;;;8.42;88.62;91481.97;4983338;28;20038;-90
2021/09/07 06:03:44;;;;;;;15.95;9.45;;;;;;;8.73;87.90;91478.56;4980324;28;20029;-90
2021/09/07 06:06:10;;;;;;;18.27;9.48;;;;;;;8.66;88.60;91476.41;4981000;28;20034;-91
2021/09/07 06:08:35;;;;;;;17.05;9.70;;;;;;;8.88;88.15;91482.56;4980198;28;20022;-91
2021/09/07 06:11:01;;;;;;;16.15;9.90;;;;;;;8.80;88.50;91471.84;4995294;28;20026;-92
2021/09/07 06:13:26;;;;;;;16.00;9.75;;;;;;;8.86;88.38;91485.47;5012920;28;20025;-91
2021/09/07 06:15:52;;;;;;;15.43;9.38;;;;;;;8.97;88.92;91480.72;4979538;28;20033;-90
2021/09/07 06:18:17;;;;;;;17.30;9.90;;;;;;;9.10;88.49;91479.84;5012281;28;20534;-92
2021/09/07 06:20:43;;;;;;;16.48;10.48;;;;;;;9.23;88.17;91488.59;4977910;28;20013;-91
2021/09/07 06:23:08;;;;;;;15.32;9.82;;;;;;;9.37;88.75;91476.19;4995072;28;20637;-91
2021/09/07 06:25:34;;;;;;;17.92;11.02;;;;;;;9.54;89.20;91494.41;5011441;28;20038;-91
2021/09/07 06:27:59;;;;;;;18.70;10.70;;;;;;;9.80;88.27;91488.41;5011503;28;20026;-91
2021/09/07 06:30:25;;;;;;;20.50;10.95;;;;;;;9.79;89.37;91492.84;4979447;28;20481;-91
2021/09/07 06:32:50;;;;;;;17.70;11.35;;;;;;;9.87;89.49;91493.91;4963018;28;20022;-91
2021/09/07 06:35:16;;;;;;;24.45;13.02;;;;;;;9.97;90.32;91490.22;4998968;28;20022;-91
2021/09/07 06:37:42;;;;;;;19.17;11.98;;;;;;;9.99;89.61;91499.22;5011018;28;20025;-91
2021/09/07 06:40:08;;;;;;;19.42;12.25;;;;;;;10.13;89.88;91501.66;4979425;28;20393;-91
2021/09/07 06:42:34;;;;;;;20.02;12.65;;;;;;;10.24;89.18;91491.66;4963457;28;20243;-91
2021/09/07 06:44:59;;;;;;;20.73;12.63;;;;;;;10.39;89.24;91501.63;4980514;28;20397;-91
2021/09/07 06:47:25;;;;;;;20.00;12.32;;;;;;;10.46;89.19;91507.13;5013197;28;20030;-91
2021/09/07 06:49:50;;;;;;;22.10;12.25;;;;;;;10.60;88.64;91506.13;4978974;28;20034;-90
2021/09/07 06:52:16;;;;;;;26.02;13.95;;;;;;;10.71;88.55;91502.13;5018178;28;20034;-91
2021/09/07 06:54:41;;;;;;;32.42;15.40;;;;;;;10.78;88.44;91505.00;4992682;28;20033;-91
2021/09/07 06:57:07;;;;;;;31.90;17.75;;;;;;;10.94;88.83;91492.94;4992200;28;20088;-91
2021/09/07 06:59:32;;;;;;;28.08;14.18;;;;;;;11.00;87.88;91491.69;5011252;28;20030;-91
2021/09/07 07:01:58;;;;;;;26.67;14.90;;;;;;;11.10;87.92;91487.19;4980070;28;20022;-91
2021/09/07 07:04:23;;;;;;;21.67;12.35;;;;;;;11.30;87.90;91488.28;4977046;28;20018;-91
2021/09/07 07:06:49;;;;;;;23.40;12.70;;;;;;;11.39;89.16;91484.53;4979097;28;20025;-91
2021/09/07 07:09:14;;;;;;;18.95;11.57;;;;;;;11.51;89.45;91490.88;5013894;28;20042;-92
2021/09/07 07:11:40;;;;;;;24.33;13.93;;;;;;;11.52;89.64;91493.19;4978557;28;20038;-91
2021/09/07 07:14:05;;;;;;;21.40;13.25;;;;;;;11.62;89.07;91492.03;5002856;28;20010;-93
2021/09/07 07:16:30;;;;;;;22.00;13.40;;;;;;;11.72;88.99;91494.25;5016030;28;20022;-96
2021/09/07 07:19:00;;;;;;;23.20;13.10;;;;;;;11.87;88.37;91498.94;4995323;28;20036;-92
2021/09/07 07:21:28;;;;;;;20.73;12.45;;;;;;;11.96;88.23;91499.59;4992261;28;20032;-92
2021/09/07 07:23:54;;;;;;;21.80;12.82;;;;;;;12.09;88.84;91500.41;4978881;28;20037;-93
2021/09/07 07:26:19;;;;;;;21.70;12.90;;;;;;;12.25;88.25;91502.41;4967643;28;20014;-92
2021/09/07 07:28:45;;;;;;;22.08;12.90;;;;;;;12.41;87.92;91496.22;4994716;28;20109;-93
2021/09/07 07:31:10;;;;;;;24.83;14.38;;;;;;;12.60;88.32;91502.78;4994995;28;20079;-93
2021/09/07 07:33:36;;;;;;;22.85;13.40;;;;;;;12.76;88.80;91503.69;4994830;28;20088;-91
2021/09/07 07:36:01;;;;;;;25.63;12.68;;;;;;;12.85;87.76;91504.31;4995345;28;20033;-93
2021/09/07 07:38:26;;;;;;;22.75;13.00;;;;;;;12.98;87.81;91507.72;4974816;28;20033;-92
2021/09/07 07:40:52;;;;;;;24.50;13.57;;;;;;;13.07;88.18;91500.53;4944585;28;20490;-93
2021/09/07 07:43:18;;;;;;;21.88;12.65;;;;;;;13.26;87.29;91507.06;4981910;28;20019;-93
2021/09/07 07:45:44;;;;;;;21.48;13.75;;;;;;;13.42;86.27;91505.28;4945189;28;20034;-93
2021/09/07 07:48:09;;;;;;;21.42;12.50;;;;;;;13.60;84.25;91506.56;4975480;28;20033;-93
2021/09/07 07:50:36;;;;;;;20.10;12.50;;;;;;;13.85;79.82;91514.34;4956388;28;20137;-91
2021/09/07 07:53:02;;;;;;;20.35;13.40;;;;;;;14.09;86.37;91513.47;4962210;28;20033;-92
2021/09/07 07:55:29;;;;;;;21.58;13.75;;;;;;;14.23;86.73;91513.84;4961008;23;20034;-89
2021/09/07 07:57:54;;;;;;;20.80;12.15;;;;;;;14.25;82.78;91509.06;4978384;28;20026;-90
2021/09/07 08:00:20;;;;;;;24.25;13.23;;;;;;;14.43;76.56;91516.59;4978508;28;20036;-89
2021/09/07 08:02:45;;;;;;;20.80;11.40;;;;;;;14.54;72.76;91517.66;4978842;28;20029;-90
2021/09/07 08:05:11;;;;;;;18.95;11.52;;;;;;;14.65;74.89;91520.53;4981341;28;20052;-89
2021/09/07 08:07:36;;;;;;;19.10;11.35;;;;;;;14.73;72.88;91517.75;4966243;28;20052;-89
2021/09/07 08:10:02;;;;;;;18.90;10.85;;;;;;;14.83;73.76;91516.50;4978218;28;20030;-89
2021/09/07 08:12:27;;;;;;;18.25;10.98;;;;;;;14.82;75.95;91510.47;4968823;28;20449;-90
2021/09/07 08:14:53;;;;;;;18.02;11.25;;;;;;;14.92;73.49;91513.72;4997518;28;20025;-90
2021/09/07 08:17:18;;;;;;;21.08;11.43;;;;;;;15.05;71.16;91517.75;4988579;28;20032;-89
2021/09/07 08:19:44;;;;;;;20.35;10.88;;;;;;;15.20;69.44;91514.34;4984083;28;20417;-90
2021/09/07 08:22:10;;;;;;;18.85;10.73;;;;;;;15.30;65.28;91513.84;4985568;28;20029;-89
2021/09/07 08:24:37;;;;;;;15.63;9.82;;;;;;;15.37;65.51;91520.31;4967771;28;20034;-90
2021/09/07 08:27:03;;;;;;;18.60;9.75;;;;;;;15.36;63.98;91521.44;4962783;28;20058;-89
2021/09/07 08:29:28;;;;;;;18.10;9.82;;;;;;;15.53;66.29;91518.44;4946496;28;20063;-92
2021/09/07 08:31:54;;;;;;;17.25;10.15;;;;;;;15.72;68.10;91517.72;4946389;28;20033;-88
2021/09/07 08:34:19;;;;;;;17.23;10.43;;;;;;;15.75;63.38;91524.91;4962678;28;20022;-89
2021/09/07 08:36:44;;;;;;;16.73;9.52;;;;;;;15.83;62.01;91523.19;4962087;28;20465;-89
2021/09/07 08:39:10;;;;;;;17.13;9.50;;;;;;;15.94;61.71;91524.94;4962298;28;20018;-89
2021/09/07 08:41:35;;;;;;;18.20;9.70;;;;;;;16.03;62.35;91527.34;4962550;28;20026;-89
2021/09/07 08:44:01;;;;;;;14.25;9.10;;;;;;;16.09;60.93;91531.25;4962202;28;20049;-89
2021/09/07 08:46:26;;;;;;;17.85;9.35;;;;;;;16.18;59.10;91529.16;4962323;28;20027;-90
2021/09/07 08:48:52;;;;;;;17.92;9.50;;;;;;;16.37;60.25;91527.63;4961767;28;20084;-89
2021/09/07 08:51:17;;;;;;;16.42;8.95;;;;;;;16.43;58.01;91524.38;4946212;28;20026;-89
2021/09/07 08:53:43;;;;;;;16.15;8.77;;;;;;;16.61;57.33;91524.69;4962483;28;20026;-89
2021/09/07 08:56:09;;;;;;;16.58;8.95;;;;;;;16.37;55.98;91530.25;4961884;28;20065;-88
2021/09/07 08:58:35;;;;;;;14.32;9.18;;;;;;;16.49;58.56;91525.59;4977953;28;20074;-89
2021/09/07 09:01:13;;;;;;;14.80;8.65;;;;;;;16.63;58.75;91525.06;5000990;28;20022;-89
2021/09/07 09:03:40;;;;;;;16.73;8.82;;;;;;;16.65;59.01;91522.09;5000724;28;20029;-89
2021/09/07 09:06:06;;;;;;;15.80;8.88;;;;;;;16.81;57.01;91527.28;5000742;28;20030;-89
2021/09/07 09:08:31;;;;;;;15.55;8.88;;;;;;;16.72;54.78;91519.59;4984227;28;20029;-89
2021/09/07 09:11:05;;;;;;;17.58;8.43;;;;;;;16.86;54.43;91529.63;5000378;28;20473;-89
2021/09/07 09:13:45;;;;;;;12.98;7.47;;;;;;;17.08;54.57;91515.69;4966941;28;20386;-89
2021/09/07 09:16:10;;;;;;;13.63;8.18;;;;;;;17.36;56.71;91520.63;4962569;28;20490;-89
2021/09/07 09:18:38;;;;;;;13.20;8.10;;;;;;;17.40;55.58;91513.53;4945665;28;20029;-91
2021/09/07 09:21:29;;;;;;;12.65;7.65;;;;;;;17.36;50.94;91511.97;4961400;28;20026;-91
2021/09/07 09:24:18;;;;;;;12.02;7.78;;;;;;;17.54;49.85;91512.97;4977764;28;20077;-91
2021/09/07 09:26:54;;;;;;;14.38;7.40;;;;;;;17.47;51.71;91515.50;5000034;28;20024;-91
2021/09/07 09:29:23;;;;;;;11.82;6.95;;;;;;;17.45;48.61;91517.72;5000601;28;20066;-91
2021/09/07 09:32:10;;;;;;;10.52;6.88;;;;;;;17.62;51.12;91514.56;4999421;28;20029;-89
2021/09/07 09:34:37;;;;;;;12.73;7.43;;;;;;;17.72;51.42;91512.44;5016367;28;20030;-89
2021/09/07 09:37:09;;;;;;;12.63;7.25;;;;;;;17.86;47.39;91512.66;4999434;28;20181;-90
2021/09/07 09:39:36;;;;;;;12.07;6.50;;;;;;;17.95;51.34;91509.72;5016460;28;20036;-91
2021/09/07 09:42:01;;;;;;;10.32;6.72;;;;;;;18.00;49.06;91515.47;5000586;28;20033;-88
2021/09/07 09:44:27;;;;;;;11.98;6.95;;;;;;;17.94;48.60;91495.03;4999892;28;20034;-88
2021/09/07 09:46:53;;;;;;;12.18;7.22;;;;;;;18.04;48.55;91505.72;4999974;28;20381;-88
2021/09/07 09:49:18;;;;;;;13.40;7.10;;;;;;;17.91;49.30;91501.78;5000069;28;20477;-89
2021/09/07 09:51:49;;;;;;;10.07;6.68;;;;;;;18.15;50.33;91509.22;4983596;28;20595;-89
2021/09/07 09:54:17;;;;;;;10.40;6.70;;;;;;;18.30;50.07;91506.75;4984298;28;20041;-89
2021/09/07 09:56:43;;;;;;;14.90;7.15;;;;;;;18.31;45.82;91503.00;4983563;28;20083;-91
2021/09/07 09:59:08;;;;;;;9.95;6.15;;;;;;;18.27;43.66;91508.25;4999459;28;20029;-88
2021/09/07 10:01:36;;;;;;;9.77;5.88;;;;;;;18.29;45.05;91507.88;4999695;28;20028;-88
2021/09/07 10:04:02;;;;;;;10.13;6.05;;;;;;;18.40;45.85;91501.59;5000417;28;20401;-92
2021/09/07 10:06:27;;;;;;;10.32;6.45;;;;;;;18.68;50.19;91489.03;4999801;28;20074;-89
2021/09/07 10:08:53;;;;;;;10.48;5.70;;;;;;;18.60;43.54;91491.59;4999189;28;20026;-90
2021/09/07 10:11:22;;;;;;;9.98;5.25;;;;;;;18.78;42.38;91491.78;4999801;28;20021;-89
2021/09/07 10:13:49;;;;;;;6.93;4.75;;;;;;;18.72;38.17;91492.50;4999623;28;20036;-90
2021/09/07 10:16:34;;;;;;;7.57;4.80;;;;;;;18.87;37.59;91496.78;5000052;28;20440;-91
2021/09/07 10:24:49;;;;;;;8.93;5.75;;;;;;;18.96;41.58;91499.88;5009803;28;20040;-92
2021/09/07 10:27:15;;;;;;;9.77;5.60;;;;;;;19.15;43.02;91495.47;4999969;28;20103;-89
2021/09/07 10:29:41;;;;;;;8.98;5.47;;;;;;;19.16;42.54;91494.38;4999821;28;20025;-88
2021/09/07 10:32:24;;;;;;;7.97;4.88;;;;;;;19.15;40.49;91484.91;5000799;28;20021;-89
2021/09/07 10:35:05;;;;;;;7.47;4.95;;;;;;;19.19;40.68;91485.72;5000924;28;20037;-92
2021/09/07 10:38:07;;;;;;;8.93;5.50;;;;;;;19.36;41.93;91479.78;4980042;28;20481;-92
2021/09/07 10:40:43;;;;;;;8.70;5.45;;;;;;;19.29;43.21;91477.88;4977284;28;20080;-92
2021/09/07 10:43:08;;;;;;;9.05;6.18;;;;;;;19.36;41.71;91474.47;4962764;28;20033;-92
2021/09/07 10:45:35;;;;;;;9.45;5.72;;;;;;;19.45;45.22;91472.28;4980407;28;20021;-88
2021/09/07 10:48:27;;;;;;;9.15;5.80;;;;;;;19.82;46.19;91479.28;4980599;28;20025;-92
2021/09/07 10:50:57;;;;;;;9.32;6.28;;;;;;;19.62;43.11;91470.13;4998920;28;20026;-90
2021/09/07 10:53:23;;;;;;;8.98;5.25;;;;;;;19.82;45.29;91479.28;4964611;28;20034;-89
2021/09/07 10:55:48;;;;;;;9.90;5.40;;;;;;;19.65;41.13;91469.41;4980486;28;20029;-89
2021/09/07 10:58:31;;;;;;;10.20;5.65;;;;;;;19.66;41.47;91463.75;4976411;28;20057;-89
2021/09/07 11:00:56;;;;;;;10.15;5.75;;;;;;;19.45;42.03;91464.34;4944882;28;20092;-88
2021/09/07 11:03:25;;;;;;;8.50;5.45;;;;;;;19.70;44.06;91469.06;4950194;28;20494;-89
2021/09/07 11:05:50;;;;;;;11.40;5.72;;;;;;;19.78;41.81;91466.06;4961438;28;20030;-88
2021/09/07 11:08:17;;;;;;;8.65;5.85;;;;;;;19.88;40.40;91461.94;4962470;28;20438;-89
2021/09/07 11:10:53;;;;;;;10.20;6.20;;;;;;;19.99;44.37;91462.75;4961208;28;20022;-90
2021/09/07 11:13:31;;;;;;;8.02;5.80;;;;;;;20.29;46.02;91470.41;5003506;28;20485;-89
2021/09/07 11:16:00;;;;;;;8.75;5.03;;;;;;;20.44;45.06;91465.16;5001061;28;20029;-90
2021/09/07 11:18:27;;;;;;;8.10;5.68;;;;;;;20.60;45.58;91460.31;5001277;28;20021;-90
2021/09/07 11:20:54;;;;;;;8.10;5.40;;;;;;;20.62;45.16;91458.03;5000188;28;20052;-89
2021/09/07 11:23:31;;;;;;;8.50;5.53;;;;;;;20.45;41.49;91446.25;5000563;28;20021;-91
2021/09/07 11:26:13;;;;;;;8.02;5.32;;;;;;;20.73;45.01;91455.38;4999821;28;20497;-89
2021/09/07 11:28:41;;;;;;;8.10;4.97;;;;;;;20.82;39.63;91457.69;5000691;28;20557;-89
2021/09/07 11:31:07;;;;;;;7.68;5.20;;;;;;;20.77;42.60;91461.44;4999380;28;20029;-89
2021/09/07 11:33:37;;;;;;;8.80;5.55;;;;;;;21.07;45.44;91462.97;4999663;28;20021;-89